Noordam — PHET — position and weather

sailwx.info

Track history (hours):
 
Tides and Currents Weather Stations Pressure Air Temp Water Temp Dewpoint Dewpoint Depression Visibility Wind Speed Wind Dir Waves Ship Positions

Noordam (Netherlands)

Ship's website: http://www.hollandamerica.com/cruiseships/Noordam

Last reported at 2017-Aug-16 12:00 UTC. Time now 2017-Aug-16 19:18 UTC.
Position N 57°00' W 134°12'.

Type: Passenger vessel. MMSI: 246028000.

Wind from 140 at 30 knots

Barometer 1003.1 mb
Air temperature 11.3 ° C
Visibility: greater than 10.8 NM
Dewpoint 11.1 ° C
Water temperature 13.0 ° C

Date/timePositionNaut miles runAvg speedWind from/ knotsBaromVisibWave heightAir tempDewpointWater temp
2017-Aug-16 12:00N 57°00' W 134°12'1413.7 140 / 301003.110.8 11.311.113.0
2017-Aug-16 11:00N 56°48' W 134°24'1818.3 180 / 151003.010.8 12.812.613.0
2017-Aug-16 10:00N 56°30' W 134°30'1212.0 180 / 151003.010.8 12.812.613.0
2017-Aug-16 09:00N 56°18' W 134°30'40 8.0 190 / 181003.010.8 12.812.613.0
2017-Aug-16 04:00N 56°18' W 133°18'165 6.9 130 / 181003.1 2.2 11.210.912.0
2017-Aug-15 04:00N 54°06' W 130°24'1616.0 110 / 51015.510.8 13.112.012.0
2017-Aug-15 03:00N 53°54' W 130°06'5116.9 140 / 121015.610.8 13.212.112.0
2017-Aug-15 00:00N 53°12' W 129°18'4213.2 260 / 51013.1 5.4 15.013.512.0
2017-Aug-14 20:50N 52°33' W 128°53'515.2
2017-Aug-14 20:30N 52°28' W 128°52'815.2
2017-Aug-14 20:00N 52°21' W 128°50'714.6
2017-Aug-14 19:30N 52°13' W 128°48'714.6
2017-Aug-14 19:00N 52°06' W 128°45'815.1
2017-Aug-14 18:30N 51°59' W 128°42'714.6
2017-Aug-14 18:00N 51°52' W 128°39'714.1
2017-Aug-14 17:30N 51°45' W 128°36'713.8
2017-Aug-14 17:00N 51°38' W 128°34'713.8
2017-Aug-14 16:31N 51°32' W 128°31'713.8
2017-Aug-14 16:00N 51°25' W 128°28'713.9
2017-Aug-14 15:30N 51°19' W 128°24'713.8
2017-Aug-14 15:00N 51°12' W 128°19'714.1
2017-Aug-14 14:30N 51°08' W 128°10'714.3
2017-Aug-14 14:00N 51°05' W 128°00'814.3
2017-Aug-14 13:25N 50°60' W 127°49'614.5
2017-Aug-14 12:58N 50°56' W 127°41'714.6
2017-Aug-14 12:30N 50°52' W 127°33'714.8
2017-Aug-14 12:00N 50°49' W 127°22'714.5
2017-Aug-14 11:30N 50°46' W 127°12'814.8
2017-Aug-14 11:00N 50°43' W 127°01'714.2
2017-Aug-14 10:30N 50°40' W 126°51'714.2
2017-Aug-14 09:59N 50°35' W 126°42'612.2
2017-Aug-14 09:29N 50°31' W 126°35'915.1
2017-Aug-14 08:52N 50°30' W 126°20'614.9
2017-Aug-14 08:27N 50°29' W 126°11'1614.6
2017-Aug-14 07:21N 50°23' W 125°48'616.0
2017-Aug-14 06:59N 50°22' W 125°39'815.0
2017-Aug-14 06:29N 50°20' W 125°27'613.3
2017-Aug-14 06:00N 50°15' W 125°23'714.1
2017-Aug-14 05:30N 50°08' W 125°21'713.1
2017-Aug-14 05:00N 50°03' W 125°14'713.6
2017-Aug-14 04:31N 49°57' W 125°09'918.7
2017-Aug-14 04:00N 49°51' W 124°57'1020.3
2017-Aug-14 03:30N 49°45' W 124°45'1020.3
2017-Aug-14 03:00N 49°39' W 124°32'1020.4
2017-Aug-14 02:30N 49°33' W 124°19'917.9
2017-Aug-14 02:01N 49°28' W 124°08'1019.1
2017-Aug-14 01:31N 49°25' W 123°54'1020.7
2017-Aug-14 01:01N 49°21' W 123°39'1020.0
2017-Aug-14 00:31N 49°19' W 123°24'917.8
2017-Aug-14 00:00N 49°19' W 123°10'3 6.2
2017-Aug-13 23:30N 49°17' W 123°07'0 0.0
2017-Aug-13 23:00N 49°17' W 123°07'0 0.0
2017-Aug-13 22:30N 49°17' W 123°07'0 0.0
2017-Aug-13 22:00N 49°17' W 123°07'0 0.0
2017-Aug-13 21:27N 49°17' W 123°07'0 0.0
2017-Aug-13 21:00N 49°17' W 123°07'0 0.0
2017-Aug-13 20:30N 49°17' W 123°07'0 0.0
2017-Aug-13 20:00N 49°17' W 123°07'0 0.0
2017-Aug-13 19:30N 49°17' W 123°07'0 0.0
2017-Aug-13 19:00N 49°17' W 123°07'0 0.0
2017-Aug-13 18:27N 49°17' W 123°07'0 0.0
2017-Aug-13 18:00N 49°17' W 123°07'0 0.0
2017-Aug-13 17:30N 49°17' W 123°07'0 0.0
2017-Aug-13 16:57N 49°17' W 123°07'0 0.0
2017-Aug-13 16:30N 49°17' W 123°07'0 0.0
2017-Aug-13 16:00N 49°17' W 123°07'0 0.0
2017-Aug-13 15:30N 49°17' W 123°07'0 0.0
2017-Aug-13 14:59N 49°17' W 123°07'0 0.0
2017-Aug-13 14:29N 49°17' W 123°07'0 0.0
2017-Aug-13 14:00N 49°17' W 123°07'0 0.0
2017-Aug-13 13:29N 49°17' W 123°07'0 0.4
2017-Aug-13 13:00N 49°18' W 123°06'2 4.1
2017-Aug-13 12:30N 49°19' W 123°09'611.6
2017-Aug-13 12:00N 49°18' W 123°17'611.6
2017-Aug-13 11:30N 49°18' W 123°26'611.9
2017-Aug-13 11:00N 49°19' W 123°35'611.7
2017-Aug-13 10:30N 49°19' W 123°44'612.0
2017-Aug-13 10:00N 49°20' W 123°53'612.8
2017-Aug-13 09:30N 49°22' W 124°03'612.7
2017-Aug-13 09:00N 49°24' W 124°12'612.8
2017-Aug-13 08:30N 49°26' W 124°21'611.9
2017-Aug-13 08:00N 49°29' W 124°29'6385.3
2017-Aug-13 08:00N 49°24' W 124°24'1225.1 120 / 251014.410.8 16.615.616.0
2017-Aug-13 07:30N 49°34' W 124°35'612.9
2017-Aug-13 07:00N 49°38' W 124°42'612.8
2017-Aug-13 06:30N 49°43' W 124°48'612.6
2017-Aug-13 06:00N 49°48' W 124°55'612.6
2017-Aug-13 05:30N 49°53' W 125°02'612.9
2017-Aug-13 05:00N 49°57' W 125°09'612.2
2017-Aug-13 04:30N 50°02' W 125°14'612.9
2017-Aug-13 04:00N 50°07' W 125°20'713.4
2017-Aug-13 03:30N 50°14' W 125°23'713.9
2017-Aug-13 03:00N 50°20' W 125°27'916.1
2017-Aug-13 02:25N 50°22' W 125°41'3916.2
2017-Aug-13 00:01N 50°32' W 126°41'415.5
2017-Aug-12 23:46N 50°35' W 126°43'618.2
2017-Aug-12 23:27N 50°39' W 126°50'3118.4
2017-Aug-12 21:46N 50°52' W 127°34'517.6
2017-Aug-12 21:30N 50°55' W 127°40'917.1
2017-Aug-12 21:00N 51°00' W 127°51'917.3
2017-Aug-12 20:31N 51°05' W 128°02'917.1
2017-Aug-12 20:00N 51°10' W 128°14'816.7
2017-Aug-12 19:31N 51°15' W 128°24'816.8
2017-Aug-12 19:00N 51°22' W 128°32'917.2
2017-Aug-12 18:30N 51°29' W 128°40'816.5
2017-Aug-12 18:00N 51°35' W 128°48'816.8
2017-Aug-12 17:30N 51°42' W 128°56'816.5
2017-Aug-12 17:00N 51°49' W 129°03'917.2
2017-Aug-12 16:30N 51°56' W 129°12'918.3
2017-Aug-12 16:00N 52°03' W 129°21'5217.9
2017-Aug-12 13:05N 52°46' W 130°09'718.2
2017-Aug-12 12:44N 52°52' W 130°15'717.9
2017-Aug-12 12:19N 52°58' W 130°21'617.7
2017-Aug-12 11:58N 53°04' W 130°27'918.2
2017-Aug-12 11:29N 53°11' W 130°34'1017.8
2017-Aug-12 10:54N 53°20' W 130°42'717.0
2017-Aug-12 10:30N 53°26' W 130°47'1610.7
2017-Aug-12 09:00N 53°42' W 130°54'117 6.9 140 / 401009.510.8 12.111.912.0
2017-Aug-11 16:00N 55°30' W 132°12'1919.2 100 / 31013.410.8 13.713.213.0
2017-Aug-11 15:00N 55°48' W 132°24'5317.6 040 / 61012.910.8 12.512.013.0
2017-Aug-11 12:00N 56°18' W 133°42'21 7.0 170 / 211016.810.8 11.010.412.0
2017-Aug-11 09:00N 56°12' W 134°18'4214.0 170 / 201017.010.8 11.010.411.6
2017-Aug-11 06:00N 56°54' W 134°24'1817.7 190 / 231012.110.8 13.010.711.0
2017-Aug-11 05:00N 57°06' W 134°00'3231.5 240 / 231012.110.8 13.010.711.0
2017-Aug-11 04:00N 57°36' W 133°42'48 9.5 110 / 151016.110.8 15.010.614.0
2017-Aug-10 23:00N 58°18' W 134°24'6 0.5 300 / 81016.010.8 24.014.712.0
2017-Aug-10 12:00N 58°12' W 134°24'1414.0 280 / 131016.310.8 14.211.914.0
2017-Aug-10 11:00N 58°18' W 134°48'9 8.7 110 / 111016.310.8 14.211.914.0
2017-Aug-10 10:00N 58°24' W 135°00'1212.4 200 / 81016.310.8 14.211.914.0
2017-Aug-10 09:00N 58°36' W 135°06'6 6.0 150 / 41016.310.8 15.812.415.0
2017-Aug-10 08:00N 58°42' W 135°06'1212.4 170 / 101016.410.8 15.812.415.0
2017-Aug-10 07:00N 58°54' W 135°12'19 2.4 180 / 201016.410.8 19.214.212.0
2017-Aug-09 23:00N 59°12' W 135°24'26 2.3 080 / 21018.110.8 19.214.212.0
2017-Aug-09 12:00N 58°48' W 135°06'4214.0 350 / 101022.410.8 13.812.715.0
2017-Aug-09 09:00N 58°06' W 135°06'1236.0 310 / 171023.010.8 13.612.712.0
2017-Aug-09 08:40N 58°12' W 135°25'416.4
2017-Aug-09 08:26N 58°14' W 135°32'715.7
2017-Aug-09 08:00N 58°17' W 135°43'1019.1
2017-Aug-09 07:30N 58°20' W 136°00'7 1.8
2017-Aug-09 03:42N 58°18' W 136°13'317.0
2017-Aug-09 03:30N 58°19' W 136°07'815.6
2017-Aug-09 03:00N 58°25' W 135°58'612.9
2017-Aug-09 02:30N 58°31' W 136°03'815.1
2017-Aug-09 02:00N 58°38' W 136°04'713.7
2017-Aug-09 01:30N 58°43' W 136°13'713.1
2017-Aug-09 01:01N 58°47' W 136°23'612.4
2017-Aug-09 00:29N 58°51' W 136°33'6 1.2
2017-Aug-08 20:00N 58°48' W 136°42'12 6.1 300 / 81023.910.8 11.510.1 9.0
2017-Aug-08 18:01N 58°46' W 136°19'111.5
2017-Aug-08 17:58N 58°46' W 136°18'614.3
2017-Aug-08 17:31N 58°41' W 136°10'816.4
2017-Aug-08 17:00N 58°34' W 136°04'714.8
2017-Aug-08 16:30N 58°27' W 135°59'4 8.7
2017-Aug-08 16:00N 58°22' W 135°59'5311.6
2017-Aug-08 16:00N 58°18' W 135°54'919.4 010 / 61024.210.8 10.5 9.9 8.0
2017-Aug-08 15:30N 58°18' W 136°12'1811.7
2017-Aug-08 14:00N 58°06' W 136°36'2814.0 040 / 51024.210.8 12.111.5 9.0
2017-Aug-08 12:00N 58°18' W 137°24'9 9.5 110 / 61028.110.8 13.913.115.0
2017-Aug-08 11:00N 58°18' W 137°42'2814.2 100 / 41028.010.8 13.712.813.0
2017-Aug-08 09:00N 58°36' W 138°24'4711.8 150 / 71027.710.8 14.113.016.0
2017-Aug-08 05:00N 58°42' W 139°54'1918.7 180 / 81023.210.8 14.313.316.0
2017-Aug-08 04:00N 58°42' W 140°30'6 6.2 180 / 81022.110.8 14.313.316.0
2017-Aug-08 03:00N 58°42' W 140°42'3517.4 180 / 81022.110.8 14.313.316.0
2017-Aug-08 01:00N 58°48' W 141°48'6513.1 150 / 121022.210.8 14.312.815.0
2017-Aug-07 20:00N 58°54' W 143°54'6 6.2 120 / 111018.310.8 13.911.915.0
2017-Aug-07 19:00N 58°54' W 144°06'7 6.8 120 / 111018.310.8 13.911.915.0
2017-Aug-07 18:00N 59°00' W 144°00'3737.1
2017-Aug-07 17:00N 59°00' W 145°12'1716.6 110 13.9
2017-Aug-07 16:00N 59°06' W 145°42'1212.3 150 / 81017.010.8 13.912.115.0
2017-Aug-07 15:00N 59°06' W 146°06'1212.3 150 / 81016.710.8 13.511.715.0
2017-Aug-07 14:00N 59°06' W 146°30'4113.7 170 / 101016.410.8 12.811.215.0
2017-Aug-07 11:00N 59°24' W 147°42'9 9.2 210 / 41019.910.8 13.511.715.0
2017-Aug-07 10:00N 59°24' W 148°00'1919.4 180 / 31019.410.8 13.511.715.0
2017-Aug-07 09:00N 59°36' W 148°30'36 4.0 230 / 101019.310.8 13.511.915.0
2017-Aug-07 00:00N 60°00' W 149°24'0 0.0 180 / 121012.810.8 16.014.914.0
2017-Aug-06 23:00N 60°00' W 149°24'0 0.0 180 / 121012.810.8 16.014.914.0
2017-Aug-06 22:00N 60°00' W 149°24'0 0.0 170 / 121012.810.8 16.014.914.0
2017-Aug-06 21:00N 60°00' W 149°24'0 0.0 160 / 121012.410.8 16.014.914.0
2017-Aug-06 20:00N 60°00' W 149°24'   170 / 131016.610.8 16.014.914.0
Track history (hours):
 
Tides and Currents Weather Stations Pressure Air Temp Water Temp Dewpoint Dewpoint Depression Visibility Wind Speed Wind Dir Waves Ship Positions

Noordam (Netherlands)

Ship's website: http://www.hollandamerica.com/cruiseships/Noordam

Last reported at 2017-Aug-16 12:00 UTC. Time now 2017-Aug-16 19:18 UTC.
Position N 57°00' W 134°12'.

Type: Passenger vessel. MMSI: 246028000.

Wind from 140 at 30 knots

Barometer 1003.1 mb
Air temperature 11.3 ° C
Visibility: greater than 10.8 NM
Dewpoint 11.1 ° C
Water temperature 13.0 ° C

Date/timePositionNaut miles runAvg speedWind from/ knotsBaromVisibWave heightAir tempDewpointWater temp
2017-Aug-16 12:00N 57°00' W 134°12'1413.7 140 / 301003.110.8 11.311.113.0
2017-Aug-16 11:00N 56°48' W 134°24'1818.3 180 / 151003.010.8 12.812.613.0
2017-Aug-16 10:00N 56°30' W 134°30'1212.0 180 / 151003.010.8 12.812.613.0
2017-Aug-16 09:00N 56°18' W 134°30'40 8.0 190 / 181003.010.8 12.812.613.0
2017-Aug-16 04:00N 56°18' W 133°18'165 6.9 130 / 181003.1 2.2 11.210.912.0
2017-Aug-15 04:00N 54°06' W 130°24'1616.0 110 / 51015.510.8 13.112.012.0
2017-Aug-15 03:00N 53°54' W 130°06'5116.9 140 / 121015.610.8 13.212.112.0
2017-Aug-15 00:00N 53°12' W 129°18'4213.2 260 / 51013.1 5.4 15.013.512.0
2017-Aug-14 20:50N 52°33' W 128°53'515.2
2017-Aug-14 20:30N 52°28' W 128°52'815.2
2017-Aug-14 20:00N 52°21' W 128°50'714.6
2017-Aug-14 19:30N 52°13' W 128°48'714.6
2017-Aug-14 19:00N 52°06' W 128°45'815.1
2017-Aug-14 18:30N 51°59' W 128°42'714.6
2017-Aug-14 18:00N 51°52' W 128°39'714.1
2017-Aug-14 17:30N 51°45' W 128°36'713.8
2017-Aug-14 17:00N 51°38' W 128°34'713.8
2017-Aug-14 16:31N 51°32' W 128°31'713.8
2017-Aug-14 16:00N 51°25' W 128°28'713.9
2017-Aug-14 15:30N 51°19' W 128°24'713.8
2017-Aug-14 15:00N 51°12' W 128°19'714.1
2017-Aug-14 14:30N 51°08' W 128°10'714.3
2017-Aug-14 14:00N 51°05' W 128°00'814.3
2017-Aug-14 13:25N 50°60' W 127°49'614.5
2017-Aug-14 12:58N 50°56' W 127°41'714.6
2017-Aug-14 12:30N 50°52' W 127°33'714.8
2017-Aug-14 12:00N 50°49' W 127°22'714.5
2017-Aug-14 11:30N 50°46' W 127°12'814.8
2017-Aug-14 11:00N 50°43' W 127°01'714.2
2017-Aug-14 10:30N 50°40' W 126°51'714.2
2017-Aug-14 09:59N 50°35' W 126°42'612.2
2017-Aug-14 09:29N 50°31' W 126°35'915.1
2017-Aug-14 08:52N 50°30' W 126°20'614.9
2017-Aug-14 08:27N 50°29' W 126°11'1614.6
2017-Aug-14 07:21N 50°23' W 125°48'616.0
2017-Aug-14 06:59N 50°22' W 125°39'815.0
2017-Aug-14 06:29N 50°20' W 125°27'613.3
2017-Aug-14 06:00N 50°15' W 125°23'714.1
2017-Aug-14 05:30N 50°08' W 125°21'713.1
2017-Aug-14 05:00N 50°03' W 125°14'713.6
2017-Aug-14 04:31N 49°57' W 125°09'918.7
2017-Aug-14 04:00N 49°51' W 124°57'1020.3
2017-Aug-14 03:30N 49°45' W 124°45'1020.3
2017-Aug-14 03:00N 49°39' W 124°32'1020.4
2017-Aug-14 02:30N 49°33' W 124°19'917.9
2017-Aug-14 02:01N 49°28' W 124°08'1019.1
2017-Aug-14 01:31N 49°25' W 123°54'1020.7
2017-Aug-14 01:01N 49°21' W 123°39'1020.0
2017-Aug-14 00:31N 49°19' W 123°24'917.8
2017-Aug-14 00:00N 49°19' W 123°10'3 6.2
2017-Aug-13 23:30N 49°17' W 123°07'0 0.0
2017-Aug-13 23:00N 49°17' W 123°07'0 0.0
2017-Aug-13 22:30N 49°17' W 123°07'0 0.0
2017-Aug-13 22:00N 49°17' W 123°07'0 0.0
2017-Aug-13 21:27N 49°17' W 123°07'0 0.0
2017-Aug-13 21:00N 49°17' W 123°07'0 0.0
2017-Aug-13 20:30N 49°17' W 123°07'0 0.0
2017-Aug-13 20:00N 49°17' W 123°07'0 0.0
2017-Aug-13 19:30N 49°17' W 123°07'0 0.0
2017-Aug-13 19:00N 49°17' W 123°07'0 0.0
2017-Aug-13 18:27N 49°17' W 123°07'0 0.0
2017-Aug-13 18:00N 49°17' W 123°07'0 0.0
2017-Aug-13 17:30N 49°17' W 123°07'0 0.0
2017-Aug-13 16:57N 49°17' W 123°07'0 0.0
2017-Aug-13 16:30N 49°17' W 123°07'0 0.0
2017-Aug-13 16:00N 49°17' W 123°07'0 0.0
2017-Aug-13 15:30N 49°17' W 123°07'0 0.0
2017-Aug-13 14:59N 49°17' W 123°07'0 0.0
2017-Aug-13 14:29N 49°17' W 123°07'0 0.0
2017-Aug-13 14:00N 49°17' W 123°07'0 0.0
2017-Aug-13 13:29N 49°17' W 123°07'0 0.4
2017-Aug-13 13:00N 49°18' W 123°06'2 4.1
2017-Aug-13 12:30N 49°19' W 123°09'611.6
2017-Aug-13 12:00N 49°18' W 123°17'611.6
2017-Aug-13 11:30N 49°18' W 123°26'611.9
2017-Aug-13 11:00N 49°19' W 123°35'611.7
2017-Aug-13 10:30N 49°19' W 123°44'612.0
2017-Aug-13 10:00N 49°20' W 123°53'612.8
2017-Aug-13 09:30N 49°22' W 124°03'612.7
2017-Aug-13 09:00N 49°24' W 124°12'612.8
2017-Aug-13 08:30N 49°26' W 124°21'611.9
2017-Aug-13 08:00N 49°29' W 124°29'6385.3
2017-Aug-13 08:00N 49°24' W 124°24'1225.1 120 / 251014.410.8 16.615.616.0
2017-Aug-13 07:30N 49°34' W 124°35'612.9
2017-Aug-13 07:00N 49°38' W 124°42'612.8
2017-Aug-13 06:30N 49°43' W 124°48'612.6
2017-Aug-13 06:00N 49°48' W 124°55'612.6
2017-Aug-13 05:30N 49°53' W 125°02'612.9
2017-Aug-13 05:00N 49°57' W 125°09'612.2
2017-Aug-13 04:30N 50°02' W 125°14'612.9
2017-Aug-13 04:00N 50°07' W 125°20'713.4
2017-Aug-13 03:30N 50°14' W 125°23'713.9
2017-Aug-13 03:00N 50°20' W 125°27'916.1
2017-Aug-13 02:25N 50°22' W 125°41'3916.2
2017-Aug-13 00:01N 50°32' W 126°41'415.5
2017-Aug-12 23:46N 50°35' W 126°43'618.2
2017-Aug-12 23:27N 50°39' W 126°50'3118.4
2017-Aug-12 21:46N 50°52' W 127°34'517.6
2017-Aug-12 21:30N 50°55' W 127°40'917.1
2017-Aug-12 21:00N 51°00' W 127°51'917.3
2017-Aug-12 20:31N 51°05' W 128°02'917.1
2017-Aug-12 20:00N 51°10' W 128°14'816.7
2017-Aug-12 19:31N 51°15' W 128°24'816.8
2017-Aug-12 19:00N 51°22' W 128°32'917.2
2017-Aug-12 18:30N 51°29' W 128°40'816.5
2017-Aug-12 18:00N 51°35' W 128°48'816.8
2017-Aug-12 17:30N 51°42' W 128°56'816.5
2017-Aug-12 17:00N 51°49' W 129°03'917.2
2017-Aug-12 16:30N 51°56' W 129°12'918.3
2017-Aug-12 16:00N 52°03' W 129°21'5217.9
2017-Aug-12 13:05N 52°46' W 130°09'718.2
2017-Aug-12 12:44N 52°52' W 130°15'717.9
2017-Aug-12 12:19N 52°58' W 130°21'617.7
2017-Aug-12 11:58N 53°04' W 130°27'918.2
2017-Aug-12 11:29N 53°11' W 130°34'1017.8
2017-Aug-12 10:54N 53°20' W 130°42'717.0
2017-Aug-12 10:30N 53°26' W 130°47'1610.7
2017-Aug-12 09:00N 53°42' W 130°54'117 6.9 140 / 401009.510.8 12.111.912.0
2017-Aug-11 16:00N 55°30' W 132°12'1919.2 100 / 31013.410.8 13.713.213.0
2017-Aug-11 15:00N 55°48' W 132°24'5317.6 040 / 61012.910.8 12.512.013.0
2017-Aug-11 12:00N 56°18' W 133°42'21 7.0 170 / 211016.810.8 11.010.412.0
2017-Aug-11 09:00N 56°12' W 134°18'4214.0 170 / 201017.010.8 11.010.411.6
2017-Aug-11 06:00N 56°54' W 134°24'1817.7 190 / 231012.110.8 13.010.711.0
2017-Aug-11 05:00N 57°06' W 134°00'3231.5 240 / 231012.110.8 13.010.711.0
2017-Aug-11 04:00N 57°36' W 133°42'48 9.5 110 / 151016.110.8 15.010.614.0
2017-Aug-10 23:00N 58°18' W 134°24'6 0.5 300 / 81016.010.8 24.014.712.0
2017-Aug-10 12:00N 58°12' W 134°24'1414.0 280 / 131016.310.8 14.211.914.0
2017-Aug-10 11:00N 58°18' W 134°48'9 8.7 110 / 111016.310.8 14.211.914.0
2017-Aug-10 10:00N 58°24' W 135°00'1212.4 200 / 81016.310.8 14.211.914.0
2017-Aug-10 09:00N 58°36' W 135°06'6 6.0 150 / 41016.310.8 15.812.415.0
2017-Aug-10 08:00N 58°42' W 135°06'1212.4 170 / 101016.410.8 15.812.415.0
2017-Aug-10 07:00N 58°54' W 135°12'19 2.4 180 / 201016.410.8 19.214.212.0
2017-Aug-09 23:00N 59°12' W 135°24'26 2.3 080 / 21018.110.8 19.214.212.0
2017-Aug-09 12:00N 58°48' W 135°06'4214.0 350 / 101022.410.8 13.812.715.0
2017-Aug-09 09:00N 58°06' W 135°06'1236.0 310 / 171023.010.8 13.612.712.0
2017-Aug-09 08:40N 58°12' W 135°25'416.4
2017-Aug-09 08:26N 58°14' W 135°32'715.7
2017-Aug-09 08:00N 58°17' W 135°43'1019.1
2017-Aug-09 07:30N 58°20' W 136°00'7 1.8
2017-Aug-09 03:42N 58°18' W 136°13'317.0
2017-Aug-09 03:30N 58°19' W 136°07'815.6
2017-Aug-09 03:00N 58°25' W 135°58'612.9
2017-Aug-09 02:30N 58°31' W 136°03'815.1
2017-Aug-09 02:00N 58°38' W 136°04'713.7
2017-Aug-09 01:30N 58°43' W 136°13'713.1
2017-Aug-09 01:01N 58°47' W 136°23'612.4
2017-Aug-09 00:29N 58°51' W 136°33'6 1.2
2017-Aug-08 20:00N 58°48' W 136°42'12 6.1 300 / 81023.910.8 11.510.1 9.0
2017-Aug-08 18:01N 58°46' W 136°19'111.5
2017-Aug-08 17:58N 58°46' W 136°18'614.3
2017-Aug-08 17:31N 58°41' W 136°10'816.4
2017-Aug-08 17:00N 58°34' W 136°04'714.8
2017-Aug-08 16:30N 58°27' W 135°59'4 8.7
2017-Aug-08 16:00N 58°22' W 135°59'5311.6
2017-Aug-08 16:00N 58°18' W 135°54'919.4 010 / 61024.210.8 10.5 9.9 8.0
2017-Aug-08 15:30N 58°18' W 136°12'1811.7
2017-Aug-08 14:00N 58°06' W 136°36'2814.0 040 / 51024.210.8 12.111.5 9.0
2017-Aug-08 12:00N 58°18' W 137°24'9 9.5 110 / 61028.110.8 13.913.115.0
2017-Aug-08 11:00N 58°18' W 137°42'2814.2 100 / 41028.010.8 13.712.813.0
2017-Aug-08 09:00N 58°36' W 138°24'4711.8 150 / 71027.710.8 14.113.016.0
2017-Aug-08 05:00N 58°42' W 139°54'1918.7 180 / 81023.210.8 14.313.316.0
2017-Aug-08 04:00N 58°42' W 140°30'6 6.2 180 / 81022.110.8 14.313.316.0
2017-Aug-08 03:00N 58°42' W 140°42'3517.4 180 / 81022.110.8 14.313.316.0
2017-Aug-08 01:00N 58°48' W 141°48'6513.1 150 / 121022.210.8 14.312.815.0
2017-Aug-07 20:00N 58°54' W 143°54'6 6.2 120 / 111018.310.8 13.911.915.0
2017-Aug-07 19:00N 58°54' W 144°06'7 6.8 120 / 111018.310.8 13.911.915.0
2017-Aug-07 18:00N 59°00' W 144°00'3737.1
2017-Aug-07 17:00N 59°00' W 145°12'1716.6 110 13.9
2017-Aug-07 16:00N 59°06' W 145°42'1212.3 150 / 81017.010.8 13.912.115.0
2017-Aug-07 15:00N 59°06' W 146°06'1212.3 150 / 81016.710.8 13.511.715.0
2017-Aug-07 14:00N 59°06' W 146°30'4113.7 170 / 101016.410.8 12.811.215.0
2017-Aug-07 11:00N 59°24' W 147°42'9 9.2 210 / 41019.910.8 13.511.715.0
2017-Aug-07 10:00N 59°24' W 148°00'1919.4 180 / 31019.410.8 13.511.715.0
2017-Aug-07 09:00N 59°36' W 148°30'36 4.0 230 / 101019.310.8 13.511.915.0
2017-Aug-07 00:00N 60°00' W 149°24'0 0.0 180 / 121012.810.8 16.014.914.0
2017-Aug-06 23:00N 60°00' W 149°24'0 0.0 180 / 121012.810.8 16.014.914.0
2017-Aug-06 22:00N 60°00' W 149°24'0 0.0 170 / 121012.810.8 16.014.914.0
2017-Aug-06 21:00N 60°00' W 149°24'0 0.0 160 / 121012.410.8 16.014.914.0
2017-Aug-06 20:00N 60°00' W 149°24'   170 / 131016.610.8 16.014.914.0

Dump ship's entire track history